Terminal Aerodrome Forecast
Issued by NWS

Home | Current Version | Previous Version | Text Only | Print | Product List | Glossary On
Versions: 1 2 3 4 5 6 7 8 9 10 11 12 13 14 15 16 17 18 19 20 21 22
000
FTUS43 KDVN 021720
TAFCID
TAF
KCID 021720Z 0218/0318 23015G25KT P6SM SCT090
     FM030000 24012G20KT P6SM SCT050
      TEMPO 0300/0303 3SM TSRA BKN040CB
     FM030300 31009KT P6SM SKC
     FM030700 34005KT P6SM SKC=

USA.gov is the U.S. government's official web portal to all federal, state and local government web resources and services.